createdAt,value
2023-03-22T00:01:30.831Z,77.85
2023-03-22T00:03:58.888Z,78.05
2023-03-22T00:06:26.654Z,77.95
2023-03-22T00:08:54.656Z,77.82
2023-03-22T00:11:25.455Z,77.48
2023-03-22T00:13:54.727Z,77.18
2023-03-22T00:16:22.466Z,77.44
2023-03-22T00:18:49.629Z,77.52
2023-03-22T00:21:17.915Z,77.68
2023-03-22T00:23:45.922Z,77.64
2023-03-22T00:26:14.840Z,77.56
2023-03-22T00:28:42.665Z,76.73
2023-03-22T00:31:10.880Z,76.73
2023-03-22T00:33:38.548Z,77.41
2023-03-22T00:36:12.234Z,76.43
2023-03-22T00:38:42.814Z,76.03
2023-03-22T00:41:22.660Z,76.50
2023-03-22T00:43:51.858Z,74.98
2023-03-22T00:46:21.117Z,75.70
2023-03-22T00:48:49.034Z,76.49
2023-03-22T00:51:16.959Z,75.79
2023-03-22T00:53:44.422Z,76.16
2023-03-22T00:56:15.563Z,75.16
2023-03-22T00:58:43.646Z,74.81
2023-03-22T01:01:15.014Z,74.46
2023-03-22T01:03:44.351Z,75.77
2023-03-22T01:06:12.010Z,74.44
2023-03-22T01:08:39.501Z,75.17
2023-03-22T01:11:08.630Z,74.44
2023-03-22T01:13:37.743Z,75.12
2023-03-22T01:16:07.000Z,75.22
2023-03-22T01:18:35.779Z,74.54
2023-03-22T01:21:03.598Z,74.55
2023-03-22T01:23:31.040Z,74.62
2023-03-22T01:25:58.087Z,75.12
2023-03-22T01:28:27.147Z,75.56
2023-03-22T01:30:55.933Z,75.53
2023-03-22T01:33:23.115Z,74.97
2023-03-22T01:35:50.434Z,75.33
2023-03-22T01:38:17.623Z,74.92
2023-03-22T01:40:44.659Z,75.96
2023-03-22T01:43:17.202Z,74.45
2023-03-22T01:45:53.143Z,76.14
2023-03-22T01:48:48.509Z,74.89
2023-03-22T01:51:25.053Z,76.73
2023-03-22T01:54:14.201Z,76.03
2023-03-22T01:56:42.175Z,76.13
2023-03-22T01:59:14.227Z,75.10
2023-03-22T02:01:41.607Z,75.12
2023-03-22T02:04:19.975Z,76.20
2023-03-22T02:06:48.187Z,75.27
2023-03-22T02:09:21.962Z,75.30
2023-03-22T02:12:13.217Z,75.59
2023-03-22T02:15:11.090Z,76.26
2023-03-22T02:18:20.625Z,76.01
2023-03-22T02:21:34.920Z,76.11
2023-03-22T02:25:19.520Z,77.45
2023-03-22T02:28:53.385Z,76.22
2023-03-22T02:31:48.568Z,76.55
2023-03-22T02:35:06.408Z,75.83
2023-03-22T02:38:12.438Z,75.77
2023-03-22T02:41:22.460Z,75.17
2023-03-22T02:44:47.544Z,76.11
2023-03-22T02:47:43.435Z,75.35
2023-03-22T02:50:29.220Z,75.82
2023-03-22T02:53:19.054Z,76.07
2023-03-22T02:55:57.530Z,75.48
2023-03-22T02:58:48.007Z,75.31
2023-03-22T03:01:32.954Z,74.95
2023-03-22T03:04:07.288Z,75.73
2023-03-22T03:06:40.671Z,75.55
2023-03-22T03:09:08.750Z,76.54
2023-03-22T03:11:38.801Z,76.92
2023-03-22T03:14:05.917Z,76.62
2023-03-22T03:16:36.647Z,77.65
2023-03-22T03:19:41.041Z,76.92
2023-03-22T03:22:47.134Z,76.11
2023-03-22T03:25:46.691Z,76.74
2023-03-22T03:28:57.761Z,75.91
2023-03-22T03:31:55.047Z,75.94
2023-03-22T03:34:49.613Z,77.02
2023-03-22T03:37:23.944Z,76.38
2023-03-22T03:40:36.196Z,76.13
2023-03-22T03:43:06.225Z,76.34
2023-03-22T03:45:35.916Z,75.92
2023-03-22T03:48:17.010Z,75.45
2023-03-22T03:50:44.312Z,75.84
2023-03-22T03:53:11.382Z,75.41
2023-03-22T03:55:38.504Z,75.30
2023-03-22T03:58:08.896Z,75.23
2023-03-22T04:00:40.069Z,75.68
2023-03-22T04:03:07.334Z,76.03
2023-03-22T04:05:35.152Z,74.71
2023-03-22T04:08:02.231Z,75.05
2023-03-22T04:10:29.280Z,74.89
2023-03-22T04:12:56.563Z,75.43
2023-03-22T04:15:24.266Z,74.69
2023-03-22T04:17:51.329Z,77.06
2023-03-22T04:20:19.485Z,77.04
2023-03-22T04:22:48.340Z,76.43
2023-03-22T04:25:18.758Z,74.96
2023-03-22T04:27:51.378Z,75.44
2023-03-22T04:30:22.793Z,75.57
2023-03-22T04:32:50.574Z,75.26
2023-03-22T04:35:18.197Z,76.72
2023-03-22T04:37:45.593Z,75.97
2023-03-22T04:40:15.970Z,74.76
2023-03-22T04:42:45.439Z,74.30
2023-03-22T04:45:13.923Z,74.08
2023-03-22T04:47:41.225Z,74.25
2023-03-22T04:50:09.557Z,74.08
2023-03-22T04:52:39.943Z,75.31
2023-03-22T04:55:07.575Z,75.44
2023-03-22T04:57:35.694Z,75.01
2023-03-22T05:00:06.627Z,74.38
2023-03-22T05:02:34.839Z,74.89
2023-03-22T05:05:01.884Z,74.48
2023-03-22T05:07:29.444Z,75.74
2023-03-22T05:09:56.465Z,75.15
2023-03-22T05:12:23.626Z,75.80
2023-03-22T05:14:50.706Z,76.56
2023-03-22T05:17:18.364Z,75.51
2023-03-22T05:19:45.764Z,77.09
2023-03-22T05:22:13.892Z,75.94
2023-03-22T05:24:41.064Z,75.29
2023-03-22T05:27:08.409Z,75.03
2023-03-22T05:29:36.953Z,74.19
2023-03-22T05:32:04.598Z,75.43
2023-03-22T05:34:35.779Z,75.36
2023-03-22T05:37:03.556Z,75.12
2023-03-22T05:39:31.274Z,75.33
2023-03-22T05:41:58.329Z,74.88
2023-03-22T05:44:25.604Z,74.26
2023-03-22T05:46:52.691Z,75.49
2023-03-22T05:49:21.133Z,74.56
2023-03-22T05:51:48.428Z,75.58
2023-03-22T05:54:15.943Z,74.92
2023-03-22T05:56:44.130Z,74.29
2023-03-22T05:59:11.392Z,74.88
2023-03-22T06:01:58.259Z,75.01
2023-03-22T06:04:28.120Z,74.90
2023-03-22T06:06:55.466Z,75.06
2023-03-22T06:09:22.788Z,75.48
2023-03-22T06:11:49.933Z,76.50
2023-03-22T06:14:17.047Z,75.56
2023-03-22T06:16:44.214Z,76.09
2023-03-22T06:19:11.259Z,75.07
2023-03-22T06:21:38.323Z,75.00
2023-03-22T06:24:05.783Z,75.47
2023-03-22T06:26:32.924Z,75.80
2023-03-22T06:29:00.172Z,75.44
2023-03-22T06:31:27.544Z,74.24
2023-03-22T06:33:55.935Z,74.72
2023-03-22T06:36:23.148Z,74.68
2023-03-22T06:38:50.309Z,74.60
2023-03-22T06:41:17.450Z,74.32
2023-03-22T06:43:44.535Z,73.79
2023-03-22T06:46:11.789Z,74.36
2023-03-22T06:48:38.892Z,73.49
2023-03-22T06:51:06.864Z,73.23
2023-03-22T06:53:36.624Z,73.10
2023-03-22T06:56:04.241Z,72.77
2023-03-22T06:58:31.334Z,73.93
2023-03-22T07:00:58.463Z,72.15
2023-03-22T07:03:25.878Z,72.16
2023-03-22T07:06:00.859Z,71.32
2023-03-22T07:08:28.057Z,71.89
2023-03-22T07:10:55.262Z,71.94
2023-03-22T07:13:22.337Z,71.59
2023-03-22T07:15:49.742Z,71.58
2023-03-22T07:18:17.067Z,71.22
2023-03-22T07:20:45.721Z,72.00
2023-03-22T07:23:13.731Z,72.97
2023-03-22T07:25:41.301Z,71.60
2023-03-22T07:28:10.361Z,71.92
2023-03-22T07:30:41.481Z,71.97
2023-03-22T07:33:10.907Z,71.52
2023-03-22T07:35:41.226Z,69.80
2023-03-22T07:38:08.415Z,69.96
2023-03-22T07:40:36.949Z,68.94
2023-03-22T07:43:04.336Z,69.52
2023-03-22T07:45:31.545Z,69.07
2023-03-22T07:47:58.664Z,69.04
2023-03-22T07:50:25.866Z,68.41
2023-03-22T07:52:55.436Z,68.39
2023-03-22T07:55:22.724Z,68.19
2023-03-22T07:57:49.894Z,68.12
2023-03-22T08:00:18.529Z,67.83
2023-03-22T08:02:46.190Z,68.51
2023-03-22T08:05:13.832Z,68.03
2023-03-22T08:07:41.299Z,68.88
2023-03-22T08:10:09.233Z,67.70
2023-03-22T08:12:36.613Z,67.25
2023-03-22T08:15:04.210Z,66.84
2023-03-22T08:17:31.475Z,66.49
2023-03-22T08:19:58.596Z,66.98
2023-03-22T08:22:29.558Z,67.17
2023-03-22T08:24:56.924Z,66.41
2023-03-22T08:27:24.123Z,65.45
2023-03-22T08:29:51.551Z,65.57
2023-03-22T08:32:19.197Z,65.79
2023-03-22T08:34:46.596Z,64.90
2023-03-22T08:37:15.022Z,65.14
2023-03-22T08:39:44.080Z,64.78
2023-03-22T08:42:11.150Z,64.79
2023-03-22T08:44:38.357Z,63.86
2023-03-22T08:47:05.795Z,63.43
2023-03-22T08:49:34.520Z,63.04
2023-03-22T08:52:01.729Z,63.20
2023-03-22T08:54:38.216Z,62.67
2023-03-22T08:57:09.328Z,62.74
2023-03-22T08:59:36.525Z,62.75
2023-03-22T09:02:03.786Z,61.27
2023-03-22T09:04:31.287Z,62.32
2023-03-22T09:06:58.356Z,61.17
2023-03-22T09:09:25.597Z,62.11
2023-03-22T09:11:52.802Z,61.86
2023-03-22T09:14:19.899Z,61.34
2023-03-22T09:16:47.861Z,60.53
2023-03-22T09:19:14.992Z,61.57
2023-03-22T09:21:42.740Z,60.83
2023-03-22T09:24:09.970Z,59.81
2023-03-22T09:26:37.540Z,59.77
2023-03-22T09:29:04.742Z,59.73
2023-03-22T09:31:32.084Z,59.17
2023-03-22T09:33:59.348Z,58.47
2023-03-22T09:36:26.450Z,59.65
2023-03-22T09:38:53.581Z,59.20
2023-03-22T09:41:41.483Z,58.58
2023-03-22T09:44:32.580Z,58.41
2023-03-22T09:47:02.110Z,57.97
2023-03-22T09:49:53.034Z,61.46
2023-03-22T09:52:21.581Z,58.37
2023-03-22T09:54:50.437Z,58.51
2023-03-22T09:57:37.464Z,57.73
2023-03-22T10:00:50.497Z,58.67
2023-03-22T10:04:16.454Z,58.24
2023-03-22T10:06:54.761Z,56.70
2023-03-22T10:10:00.639Z,55.36
2023-03-22T10:12:59.567Z,55.42
2023-03-22T10:16:03.161Z,57.33
2023-03-22T10:18:47.113Z,55.22
2023-03-22T10:21:17.863Z,56.08
2023-03-22T10:24:11.268Z,56.25
2023-03-22T10:26:45.840Z,55.57
2023-03-22T10:29:32.291Z,52.93
2023-03-22T10:32:17.919Z,53.52
2023-03-22T10:34:46.679Z,53.84
2023-03-22T10:37:29.212Z,52.12
2023-03-22T10:40:00.259Z,53.43
2023-03-22T10:42:31.150Z,54.79
2023-03-22T10:45:13.169Z,56.79
2023-03-22T10:47:58.142Z,56.13
2023-03-22T10:50:39.335Z,54.37
2023-03-22T10:53:29.404Z,51.70
2023-03-22T10:55:57.470Z,52.37
2023-03-22T10:58:34.522Z,52.96
2023-03-22T11:01:33.573Z,50.86
2023-03-22T11:04:03.765Z,49.05
2023-03-22T11:06:38.770Z,52.63
2023-03-22T11:09:32.229Z,51.17
2023-03-22T11:12:00.952Z,50.76
2023-03-22T11:14:37.510Z,50.75
2023-03-22T11:17:10.163Z,51.04
2023-03-22T11:20:01.912Z,51.34
2023-03-22T11:22:42.674Z,50.40
2023-03-22T11:25:38.436Z,50.75
2023-03-22T11:28:07.707Z,50.55
2023-03-22T11:30:36.238Z,49.18
2023-03-22T11:33:17.325Z,50.08
2023-03-22T11:35:53.356Z,49.88
2023-03-22T11:38:48.255Z,49.76
2023-03-22T11:41:35.129Z,48.62
2023-03-22T11:44:15.795Z,47.80
2023-03-22T11:47:00.559Z,50.13
2023-03-22T11:49:51.607Z,48.53
2023-03-22T11:52:26.067Z,48.03
2023-03-22T11:54:55.716Z,46.98
2023-03-22T11:57:31.426Z,45.69
2023-03-22T12:00:21.373Z,45.19
2023-03-22T12:03:06.261Z,44.95
2023-03-22T12:05:38.384Z,45.03
2023-03-22T12:08:42.827Z,45.97
2023-03-22T12:11:51.698Z,47.87
2023-03-22T12:14:41.647Z,45.70
2023-03-22T12:17:28.651Z,46.05
2023-03-22T12:20:30.956Z,46.09
2023-03-22T12:22:58.774Z,44.16
2023-03-22T12:25:35.535Z,44.73
2023-03-22T12:28:18.040Z,43.72
2023-03-22T12:30:53.786Z,42.81
2023-03-22T12:33:35.411Z,42.26
2023-03-22T12:36:06.860Z,44.38
2023-03-22T12:38:59.152Z,40.46
2023-03-22T12:44:46.475Z,43.30
2023-03-22T12:47:27.437Z,41.58
2023-03-22T12:50:11.987Z,42.27
2023-03-22T12:52:47.653Z,42.65
2023-03-22T12:55:40.916Z,40.56
2023-03-22T12:58:24.202Z,41.55
2023-03-22T13:01:20.973Z,42.00
2023-03-22T13:03:54.531Z,44.02
2023-03-22T13:06:50.634Z,42.94
2023-03-22T13:09:27.669Z,42.85
2023-03-22T13:12:16.492Z,41.73
2023-03-22T13:15:41.310Z,41.14
2023-03-22T13:18:40.091Z,40.72
2023-03-22T13:21:31.828Z,42.03
2023-03-22T13:24:16.869Z,41.17
2023-03-22T13:26:51.584Z,40.38
2023-03-22T13:29:37.477Z,44.37
2023-03-22T13:32:28.408Z,42.64
2023-03-22T13:34:56.567Z,43.14
2023-03-22T13:37:47.070Z,42.34
2023-03-22T13:40:34.832Z,41.57
2023-03-22T13:43:26.187Z,40.45
2023-03-22T13:46:19.987Z,40.80
2023-03-22T13:48:47.593Z,39.49
2023-03-22T13:51:25.393Z,42.21
2023-03-22T13:54:18.020Z,41.69
2023-03-22T13:57:01.545Z,42.49
2023-03-22T14:00:06.855Z,41.10
2023-03-22T14:02:42.173Z,43.31
2023-03-22T14:05:22.358Z,42.80
2023-03-22T14:08:00.151Z,42.38
2023-03-22T14:10:44.372Z,42.96
2023-03-22T14:13:48.014Z,42.68
2023-03-22T14:16:48.772Z,43.91
2023-03-22T14:19:31.801Z,42.44
